createdAt,value
2022-11-13T00:04:02.152Z,44.47
2022-11-13T00:09:07.570Z,45.13
2022-11-13T00:14:12.747Z,45.07
2022-11-13T00:19:18.186Z,44.80
2022-11-13T00:24:23.189Z,45.17
2022-11-13T00:29:28.843Z,45.17
2022-11-13T00:34:47.026Z,46.97
2022-11-13T00:39:40.935Z,48.17
2022-11-13T00:44:46.473Z,47.67
2022-11-13T00:49:51.358Z,45.90
2022-11-13T00:54:56.522Z,47.67
2022-11-13T01:00:01.548Z,47.53
2022-11-13T01:05:07.262Z,45.73
2022-11-13T01:10:13.396Z,45.80
2022-11-13T01:15:18.995Z,44.98
2022-11-13T01:20:26.236Z,43.93
2022-11-13T01:25:33.748Z,44.00
2022-11-13T01:30:40.358Z,44.03
2022-11-13T01:35:46.121Z,44.27
2022-11-13T01:40:50.995Z,45.23
2022-11-13T01:46:05.128Z,42.63
2022-11-13T01:51:21.223Z,43.33
2022-11-13T01:56:26.884Z,43.73
2022-11-13T02:01:32.374Z,44.37
2022-11-13T02:06:43.205Z,43.03
2022-11-13T02:11:48.652Z,45.50
2022-11-13T02:16:57.578Z,44.83
2022-11-13T02:22:22.948Z,45.20
2022-11-13T02:27:49.349Z,46.42
2022-11-13T02:32:56.727Z,47.27
2022-11-13T02:38:04.597Z,46.20
2022-11-13T02:43:10.298Z,43.80
2022-11-13T02:48:15.939Z,42.90
2022-11-13T02:53:22.370Z,43.97
2022-11-13T02:58:27.962Z,42.83
2022-11-13T03:03:57.078Z,44.30
2022-11-13T03:08:41.480Z,46.10
2022-11-13T03:13:46.335Z,44.03
2022-11-13T03:18:51.953Z,45.07
2022-11-13T03:23:57.429Z,46.27
2022-11-13T03:29:02.527Z,46.87
2022-11-13T03:34:09.689Z,45.93
2022-11-13T03:39:15.258Z,44.27
2022-11-13T03:44:21.002Z,45.35
2022-11-13T03:49:26.699Z,41.77
2022-11-13T03:54:31.864Z,44.50
2022-11-13T03:59:36.916Z,43.30
2022-11-13T04:04:41.936Z,42.37
2022-11-13T04:09:47.495Z,42.20
2022-11-13T04:14:52.428Z,41.20
2022-11-13T04:19:57.321Z,41.23
2022-11-13T04:25:02.209Z,39.37
2022-11-13T04:30:09.967Z,40.10
2022-11-13T04:35:15.525Z,38.07
2022-11-13T04:40:21.387Z,39.87
2022-11-13T04:45:29.997Z,39.30
2022-11-13T04:50:35.644Z,40.97
2022-11-13T04:55:41.145Z,40.27
2022-11-13T05:00:46.748Z,41.53
2022-11-13T05:05:51.638Z,39.43
2022-11-13T05:10:57.212Z,39.77
2022-11-13T05:16:04.087Z,39.30
2022-11-13T05:21:10.998Z,39.80
2022-11-13T05:26:16.914Z,39.45
2022-11-13T05:31:22.126Z,39.50
2022-11-13T05:36:27.061Z,38.47
2022-11-13T05:41:33.004Z,38.17
2022-11-13T05:46:38.022Z,37.47
2022-11-13T05:51:43.362Z,39.20
2022-11-13T05:56:50.349Z,37.43
2022-11-13T06:01:55.281Z,36.73
2022-11-13T06:07:00.607Z,36.67
2022-11-13T06:12:05.808Z,38.17
2022-11-13T06:17:11.829Z,39.17
2022-11-13T06:22:17.024Z,39.70
2022-11-13T06:27:22.671Z,40.55
2022-11-13T06:32:27.565Z,45.63
2022-11-13T06:37:34.703Z,45.60
2022-11-13T06:42:39.754Z,41.73
2022-11-13T06:47:44.644Z,43.93
2022-11-13T06:52:50.225Z,38.90
2022-11-13T06:57:56.186Z,38.10
2022-11-13T07:03:01.419Z,37.30
2022-11-13T07:08:06.562Z,37.60
2022-11-13T07:13:12.026Z,37.03
2022-11-13T07:18:21.492Z,40.13
2022-11-13T07:23:25.049Z,40.40
2022-11-13T07:28:30.741Z,46.28
2022-11-13T07:33:36.360Z,48.80
2022-11-13T07:38:43.006Z,48.67
2022-11-13T07:43:48.153Z,50.92
2022-11-13T07:48:53.531Z,50.90
2022-11-13T07:53:58.569Z,51.80
2022-11-13T07:59:03.561Z,48.23
2022-11-13T08:04:08.929Z,47.53
2022-11-13T08:09:15.480Z,46.42
2022-11-13T08:19:25.727Z,45.73
2022-11-13T08:24:30.912Z,46.68
2022-11-13T08:29:37.704Z,49.73
2022-11-13T08:39:47.648Z,53.43
2022-11-13T08:44:53.284Z,57.63
2022-11-13T08:49:58.579Z,57.27
2022-11-13T08:55:04.006Z,54.37
2022-11-13T09:00:11.668Z,54.70
2022-11-13T09:05:17.042Z,49.93
2022-11-13T09:10:22.486Z,56.68
2022-11-13T09:15:27.748Z,54.80
2022-11-13T09:20:35.591Z,59.13
2022-11-13T09:25:41.360Z,58.47
2022-11-13T09:30:46.582Z,58.67
2022-11-13T09:35:51.972Z,55.03
2022-11-13T09:41:00.178Z,56.17
2022-11-13T09:46:08.991Z,57.47
2022-11-13T09:51:26.007Z,58.67
2022-11-13T09:56:42.809Z,50.10
2022-11-13T10:07:14.774Z,53.20
2022-11-13T10:12:21.495Z,55.12
2022-11-13T10:17:56.637Z,51.03
2022-11-13T10:23:04.085Z,52.73
2022-11-13T10:33:31.337Z,50.78
2022-11-13T10:38:44.475Z,52.23
2022-11-13T10:43:55.400Z,50.87
2022-11-13T10:49:22.583Z,52.57
2022-11-13T10:54:33.084Z,53.27
2022-11-13T10:59:43.688Z,51.90
2022-11-13T11:04:50.556Z,52.37
2022-11-13T11:09:55.750Z,53.73
2022-11-13T11:15:07.992Z,53.47
2022-11-13T11:20:48.354Z,53.40
2022-11-13T11:25:59.696Z,52.70
2022-11-13T11:31:11.951Z,53.43
2022-11-13T11:36:38.097Z,57.18
2022-11-13T11:41:49.250Z,54.30
2022-11-13T11:46:54.619Z,54.90
2022-11-13T11:52:03.240Z,55.53
2022-11-13T11:57:28.209Z,55.80
2022-11-13T12:02:39.345Z,54.90
2022-11-13T12:08:05.735Z,55.03
2022-11-13T12:13:16.579Z,55.63
2022-11-13T12:18:27.673Z,55.47
2022-11-13T12:23:42.439Z,53.13
2022-11-13T12:28:50.688Z,52.23
2022-11-13T12:34:14.150Z,52.97
2022-11-13T12:39:23.181Z,53.47
2022-11-13T12:44:30.742Z,55.50
2022-11-13T12:49:37.663Z,54.80
2022-11-13T12:54:42.910Z,55.77
2022-11-13T12:59:54.433Z,55.07
2022-11-13T13:05:26.697Z,53.73
2022-11-13T13:10:52.630Z,53.70
2022-11-13T13:16:07.322Z,55.27
2022-11-13T13:21:17.928Z,55.53
2022-11-13T13:26:28.893Z,56.73
2022-11-13T13:31:55.596Z,55.13
2022-11-13T13:37:03.894Z,55.03
2022-11-13T13:42:31.657Z,55.87
2022-11-13T13:47:43.298Z,57.83
2022-11-13T13:52:55.490Z,56.53
2022-11-13T13:58:00.332Z,55.73
2022-11-13T14:03:04.063Z,56.57
2022-11-13T14:13:18.188Z,56.75
2022-11-13T14:18:23.518Z,56.55
2022-11-13T14:23:34.686Z,57.25
2022-11-13T14:28:53.280Z,58.07
2022-11-13T14:33:56.299Z,56.87
2022-11-13T14:39:01.849Z,58.57
2022-11-13T14:44:08.415Z,41.67
2022-11-13T14:59:44.246Z,56.50
2022-11-13T15:04:49.509Z,56.20
2022-11-13T15:09:57.075Z,55.75
2022-11-13T15:15:03.272Z,53.92
2022-11-13T15:20:10.220Z,55.17
2022-11-13T15:30:21.657Z,60.63
2022-11-13T15:35:27.767Z,56.42
2022-11-13T15:40:33.717Z,56.48
2022-11-13T15:45:43.811Z,52.63
2022-11-13T15:50:46.713Z,51.67
2022-11-13T15:55:52.514Z,52.90
2022-11-13T16:00:58.559Z,52.17
2022-11-13T16:06:04.132Z,52.27
2022-11-13T16:11:13.546Z,52.47
2022-11-13T16:16:25.146Z,52.50
2022-11-13T16:21:31.628Z,51.88
2022-11-13T16:26:36.981Z,51.40
2022-11-13T16:31:42.129Z,50.67
2022-11-13T16:36:47.833Z,50.83
2022-11-13T16:46:57.553Z,52.70
2022-11-13T16:52:02.824Z,51.60
2022-11-13T16:57:09.639Z,51.37
2022-11-13T17:02:16.633Z,54.40
2022-11-13T17:07:22.211Z,59.38
2022-11-13T17:12:27.197Z,56.95
2022-11-13T17:17:33.058Z,58.87
2022-11-13T17:22:38.721Z,59.27
2022-11-13T17:27:45.494Z,57.43
2022-11-13T17:32:50.690Z,56.68
2022-11-13T17:37:56.605Z,74.83
2022-11-13T17:43:02.177Z,68.63
2022-11-13T17:48:07.588Z,65.53
2022-11-13T17:53:14.683Z,67.60
2022-11-13T17:58:20.083Z,60.00
2022-11-13T18:03:25.205Z,57.57
2022-11-13T18:08:30.614Z,58.83
2022-11-13T18:13:36.761Z,59.33
2022-11-13T18:18:42.874Z,59.95
2022-11-13T18:23:47.981Z,72.03
2022-11-13T18:28:53.592Z,73.83
2022-11-13T18:34:04.552Z,65.97
2022-11-13T18:39:16.394Z,59.73
2022-11-13T18:44:19.212Z,59.70
2022-11-13T18:49:25.449Z,59.03
2022-11-13T18:54:30.397Z,65.73
2022-11-13T18:59:35.403Z,62.40
2022-11-13T19:04:41.098Z,63.70
2022-11-13T19:09:47.783Z,63.33
2022-11-13T19:14:53.993Z,62.00
2022-11-13T19:19:59.045Z,61.33
2022-11-13T19:25:04.083Z,71.73
2022-11-13T19:30:09.287Z,58.73
2022-11-13T19:35:14.444Z,60.83
2022-11-13T19:40:22.421Z,76.47
2022-11-13T19:45:29.520Z,67.37
2022-11-13T19:50:35.071Z,60.15
2022-11-13T19:55:41.104Z,61.23
2022-11-13T20:00:46.247Z,63.60
2022-11-13T20:05:53.801Z,63.57
2022-11-13T20:11:04.052Z,61.68
2022-11-13T20:16:11.234Z,60.73
2022-11-13T20:21:17.896Z,56.70
2022-11-13T20:26:23.644Z,60.78
2022-11-13T20:31:29.991Z,61.50
2022-11-13T20:36:35.241Z,62.50
2022-11-13T20:41:40.385Z,56.57
2022-11-13T20:46:46.271Z,60.57
2022-11-13T20:51:55.957Z,53.60
2022-11-13T20:56:59.070Z,48.87
2022-11-13T21:02:04.240Z,51.67
2022-11-13T21:07:09.499Z,50.07
2022-11-13T21:12:14.379Z,49.70
2022-11-13T21:17:20.149Z,46.65
2022-11-13T21:22:25.516Z,50.83
2022-11-13T21:27:30.880Z,50.40
2022-11-13T21:32:37.425Z,47.03
2022-11-13T21:37:42.697Z,49.30
2022-11-13T21:42:47.809Z,46.07
2022-11-13T21:47:53.996Z,47.03
2022-11-13T21:52:59.241Z,49.42
2022-11-13T21:58:04.397Z,49.20
2022-11-13T22:03:09.666Z,46.00
2022-11-13T22:08:15.037Z,47.17
2022-11-13T22:13:21.239Z,47.07
2022-11-13T22:18:27.678Z,45.20
2022-11-13T22:23:34.069Z,50.28
2022-11-13T22:28:40.999Z,47.47
2022-11-13T22:33:50.444Z,48.65
2022-11-13T22:38:54.388Z,43.63
2022-11-13T22:44:06.080Z,42.80
2022-11-13T22:49:13.782Z,43.55
2022-11-13T22:54:18.853Z,39.97
2022-11-13T22:59:24.169Z,44.37
2022-11-13T23:04:29.338Z,46.60
2022-11-13T23:09:34.256Z,42.67
2022-11-13T23:14:40.284Z,39.97
2022-11-13T23:19:47.284Z,41.23
2022-11-13T23:24:52.785Z,41.57
2022-11-13T23:29:58.258Z,41.90
2022-11-13T23:35:03.665Z,42.87
2022-11-13T23:40:09.320Z,43.50
2022-11-13T23:45:14.222Z,44.57
2022-11-13T23:50:19.601Z,44.08
2022-11-13T23:55:24.916Z,45.20
